Time;durP1;ratioP1;P1;durP2;ratioP2;P2;SDS_P1;SDS_P2;PMS_P1;PMS_P2;Temp;Humidity;BMP_temperature;BMP_pressure;BME280_temperature;BME280_humidity;BME280_pressure;Samples;Min_cycle;Max_cycle;Signal;HPM_P1;HPM_P2
2022/08/12 00:43:25;;;;;;;;;12.25;12.25;;;;;25.78;30.99;100945.09;5077614;28;45462;-64
2022/08/12 00:48:37;;;;;;;;;13.00;11.25;;;;;25.70;31.07;100951.44;5077822;28;45236;-61
2022/08/12 00:51:04;;;;;;;;;16.75;13.75;;;;;25.68;30.65;100945.28;5076745;28;46199;-61
2022/08/12 00:53:30;;;;;;;;;14.00;14.00;;;;;25.66;31.09;100949.22;5077000;28;45367;-63
2022/08/12 00:55:57;;;;;;;;;14.50;12.00;;;;;25.62;30.95;100948.69;5077841;28;45268;-62
2022/08/12 00:58:27;;;;;;;;;14.00;13.00;;;;;25.55;31.23;100936.81;5077668;28;45362;-60
2022/08/12 01:00:59;;;;;;;;;14.67;14.67;;;;;25.55;31.41;100943.13;5077349;28;45606;-60
2022/08/12 01:11:27;;;;;;;;;14.75;13.75;;;;;25.45;31.38;100920.66;5076245;28;45443;-61
2022/08/12 01:11:49;;;;;;;;;13.67;13.67;;;;;25.36;31.73;100935.31;5077528;28;45806;-62
2022/08/12 01:14:17;;;;;;;;;16.50;14.25;;;;;25.33;31.65;100935.69;5077302;28;45317;-60
2022/08/12 01:16:42;;;;;;;;;14.67;14.33;;;;;25.29;31.93;100942.50;5059276;28;45294;-61
2022/08/12 01:19:11;;;;;;;;;15.67;13.67;;;;;25.24;31.88;100928.53;5077660;28;45398;-62
2022/08/12 01:22:08;;;;;;;;;14.00;13.00;;;;;25.17;31.85;100939.28;5077444;28;45394;-62
2022/08/12 01:24:45;;;;;;;;;13.25;13.25;;;;;25.15;31.78;100929.59;5076944;28;45478;-61
2022/08/12 01:27:14;;;;;;;;;11.50;11.50;;;;;25.10;31.67;100935.53;5077162;28;45403;-61
2022/08/12 01:29:43;;;;;;;;;12.00;12.00;;;;;25.11;31.93;100939.97;5077171;28;45318;-63
2022/08/12 01:32:11;;;;;;;;;13.00;9.25;;;;;25.07;32.13;100933.16;5075498;28;46244;-65
2022/08/12 01:34:40;;;;;;;;;16.00;15.00;;;;;25.01;32.01;100928.44;5076852;28;45417;-60
2022/08/12 01:37:08;;;;;;;;;17.00;15.33;;;;;24.97;32.10;100929.72;5077188;28;45707;-62
2022/08/12 01:39:33;;;;;;;;;14.00;14.00;;;;;24.96;32.32;100930.75;5077280;28;45321;-60
2022/08/12 01:42:06;;;;;;;;;16.00;14.67;;;;;24.89;32.10;100922.44;5076930;28;45364;-61
2022/08/12 01:44:33;;;;;;;;;14.00;14.00;;;;;24.85;32.53;100928.38;5058665;28;45665;-60
2022/08/12 01:47:21;;;;;;;;;13.00;13.00;;;;;24.83;32.48;100924.97;5077130;28;45338;-60
2022/08/12 01:50:32;;;;;;;;;12.25;12.25;;;;;24.82;32.19;100931.44;5058934;28;45555;-61
2022/08/12 01:53:05;;;;;;;;;12.00;12.00;;;;;24.83;32.16;100935.88;5058933;28;46162;-61
2022/08/12 01:55:34;;;;;;;;;11.67;11.67;;;;;24.65;32.61;100908.84;5076694;28;45416;-60
2022/08/12 01:58:17;;;;;;;;;14.33;14.33;;;;;24.69;32.13;100923.78;5076812;28;45467;-60
2022/08/12 02:00:57;;;;;;;;;16.00;13.67;;;;;24.69;32.66;100930.09;5060011;28;45342;-61
2022/08/12 02:13:32;;;;;;;;;11.67;11.67;;;;;24.53;33.08;100924.63;5076995;28;45382;-62
2022/08/12 02:16:22;;;;;;;;;14.33;14.33;;;;;24.51;32.90;100918.53;5076163;28;46687;-61
2022/08/12 02:19:09;;;;;;;;;15.00;15.00;;;;;24.47;32.68;100922.56;5076146;28;45299;-62
2022/08/12 02:21:54;;;;;;;;;14.00;13.00;;;;;24.38;32.86;100910.00;5076125;28;45321;-61
2022/08/12 02:24:22;;;;;;;;;12.00;11.67;;;;;24.43;32.99;100913.06;5075736;28;45639;-60
2022/08/12 02:26:49;;;;;;;;;13.67;13.67;;;;;24.40;33.08;100908.81;5076991;28;46169;-61
2022/08/12 02:29:18;;;;;;;;;15.00;12.00;;;;;24.37;32.96;100909.16;5078176;28;45396;-62
2022/08/12 02:31:45;;;;;;;;;13.00;13.00;;;;;24.32;32.85;100907.94;5076815;28;45526;-60
2022/08/12 02:34:13;;;;;;;;;11.00;11.00;;;;;24.27;33.19;100908.44;5076590;28;45624;-61
2022/08/12 02:36:39;;;;;;;;;11.75;11.75;;;;;24.27;33.20;100908.44;5075869;28;46302;-63
2022/08/12 02:39:07;;;;;;;;;13.67;12.00;;;;;24.24;33.43;100910.63;5076180;28;45771;-61
2022/08/12 02:41:40;;;;;;;;;16.00;14.00;;;;;24.22;33.37;100912.66;5076289;28;45370;-61
2022/08/12 02:44:09;;;;;;;;;12.00;12.00;;;;;24.20;33.52;100917.41;5076169;28;45540;-61
2022/08/12 02:46:36;;;;;;;;;13.00;13.00;;;;;24.15;33.64;100898.88;5074775;28;47149;-62
2022/08/12 02:49:33;;;;;;;;;14.67;12.67;;;;;24.09;33.31;100903.13;5075802;28;45246;-61
2022/08/12 02:51:59;;;;;;;;;15.33;15.33;;;;;24.06;33.47;100897.16;5069981;28;45878;-62
2022/08/12 02:54:26;;;;;;;;;9.67;9.67;;;;;24.08;33.89;100903.28;5058343;28;45281;-61
2022/08/12 02:56:53;;;;;;;;;12.67;12.67;;;;;24.01;33.55;100897.66;5076085;28;45460;-61
2022/08/12 02:59:21;;;;;;;;;14.67;11.00;;;;;24.03;34.02;100895.63;5075917;28;45434;-61
2022/08/12 03:01:48;;;;;;;;;10.67;10.67;;;;;23.97;34.27;100888.16;5075874;28;45422;-61
2022/08/12 03:04:25;;;;;;;;;13.67;13.67;;;;;23.95;34.22;100903.75;5076152;28;45235;-62
2022/08/12 03:07:01;;;;;;;;;14.00;12.33;;;;;23.88;34.11;100900.00;5075620;28;46416;-60
2022/08/12 03:09:31;;;;;;;;;14.67;12.33;;;;;23.82;34.39;100897.94;5075714;28;45881;-62
2022/08/12 03:12:03;;;;;;;;;13.00;12.00;;;;;23.74;34.41;100895.19;5075048;28;45250;-61
2022/08/12 03:14:33;;;;;;;;;15.33;14.33;;;;;23.72;34.61;100897.25;5075531;28;45385;-61
2022/08/12 03:17:28;;;;;;;;;12.67;12.67;;;;;23.68;34.51;100902.13;5077974;28;45426;-61
2022/08/12 03:19:56;;;;;;;;;14.67;13.00;;;;;23.63;34.71;100899.06;5042265;28;45304;-61
2022/08/12 03:22:23;;;;;;;;;18.00;16.00;;;;;23.68;34.37;100910.28;5079204;28;45358;-61
2022/08/12 03:24:49;;;;;;;;;16.67;13.67;;;;;23.68;34.70;100906.69;5079370;28;45414;-61
2022/08/12 03:27:16;;;;;;;;;12.00;12.00;;;;;23.68;34.98;100906.69;5078971;27;45436;-62
2022/08/12 03:29:46;;;;;;;;;14.00;13.00;;;;;23.60;34.36;100899.38;5079016;27;45325;-61
2022/08/12 03:32:13;;;;;;;;;13.67;13.67;;;;;23.55;34.94;100897.09;5078954;28;45441;-62
2022/08/12 03:34:40;;;;;;;;;17.00;11.67;;;;;23.57;34.73;100904.25;5079160;27;45540;-61
2022/08/12 03:37:06;;;;;;;;;14.67;13.00;;;;;23.53;35.31;100904.56;5077248;28;45472;-61
2022/08/12 03:42:32;;;;;;;;;13.00;13.00;;;;;23.45;35.53;100907.25;5078936;27;45303;-61
2022/08/12 04:01:56;;;;;;;;;15.00;12.00;;;;;23.22;35.51;100911.53;5078675;28;45420;-61
2022/08/12 04:04:27;;;;;;;;;11.33;11.33;;;;;23.20;35.74;100909.00;5078820;27;45476;-61
2022/08/12 04:06:54;;;;;;;;;15.33;13.33;;;;;23.23;35.85;100913.22;5078946;28;45393;-61
2022/08/12 04:09:21;;;;;;;;;16.00;16.00;;;;;23.25;35.93;100913.91;5078543;28;45325;-61
2022/08/12 04:14:32;;;;;;;;;17.00;15.00;;;;;23.25;35.86;100900.34;5078679;28;45306;-61
2022/08/12 04:16:58;;;;;;;;;17.33;13.00;;;;;23.28;35.55;100908.16;5078874;27;45347;-61
2022/08/12 04:19:25;;;;;;;;;12.33;12.33;;;;;23.25;35.69;100903.06;5079574;28;45380;-62
2022/08/12 04:21:51;;;;;;;;;14.33;13.00;;;;;23.27;35.42;100892.03;5080798;28;45497;-61
2022/08/12 04:24:18;;;;;;;;;15.00;15.00;;;;;23.22;35.69;100895.25;5078387;27;45484;-61
2022/08/12 04:26:44;;;;;;;;;13.00;13.00;;;;;23.24;36.18;100904.94;5098179;27;45257;-62
2022/08/12 04:29:10;;;;;;;;;17.67;14.67;;;;;23.25;36.29;100903.91;5079303;27;48294;-61
2022/08/12 04:31:41;;;;;;;;;14.00;12.33;;;;;23.25;36.04;100908.50;5098715;27;45264;-63
2022/08/12 04:34:10;;;;;;;;;16.00;14.00;;;;;23.21;35.87;100899.84;5098736;27;45269;-62
2022/08/12 04:36:37;;;;;;;;;14.00;13.00;;;;;23.23;36.25;100902.38;5098692;27;45455;-62
2022/08/12 04:39:05;;;;;;;;;12.00;12.00;;;;;23.23;36.39;100905.09;5098055;27;45338;-61
2022/08/12 04:41:31;;;;;;;;;12.33;11.00;;;;;23.24;36.39;100904.09;5080024;27;45416;-61
2022/08/12 04:43:58;;;;;;;;;12.33;12.33;;;;;23.22;36.12;100900.69;5098683;27;45507;-61
2022/08/12 04:46:24;;;;;;;;;13.33;13.33;;;;;23.22;36.11;100900.69;5080223;27;45279;-61
2022/08/12 04:48:51;;;;;;;;;11.00;11.00;;;;;23.22;36.15;100906.97;5096134;27;46410;-62
2022/08/12 04:51:18;;;;;;;;;20.00;14.00;;;;;23.21;35.92;100904.41;5098259;27;45482;-62
2022/08/12 04:53:45;;;;;;;;;13.00;12.00;;;;;23.20;36.61;100908.13;5097904;27;45504;-61
2022/08/12 04:56:11;;;;;;;;;16.00;14.00;;;;;23.14;36.21;100897.91;5098256;27;45603;-61
2022/08/12 04:58:37;;;;;;;;;16.00;12.00;;;;;23.14;36.47;100901.47;5098139;27;45287;-61
2022/08/12 05:01:03;;;;;;;;;15.00;15.00;;;;;23.13;36.39;100910.63;5098795;27;45261;-62
2022/08/12 05:03:29;;;;;;;;;13.67;12.67;;;;;23.11;36.65;100911.78;5098457;27;45259;-62
2022/08/12 05:05:55;;;;;;;;;16.67;14.00;;;;;23.11;36.48;100911.78;5080028;27;45564;-62
2022/08/12 05:08:22;;;;;;;;;15.33;13.00;;;;;23.05;36.79;100907.88;5098335;27;46262;-61
2022/08/12 05:10:48;;;;;;;;;15.67;13.33;;;;;23.05;36.98;100916.00;5097857;27;45303;-63
2022/08/12 05:13:22;;;;;;;;;16.00;14.33;;;;;23.03;36.85;100907.16;5098112;27;45314;-61
2022/08/12 05:15:48;;;;;;;;;14.00;14.00;;;;;23.06;36.72;100915.00;5098125;27;45298;-61
2022/08/12 05:18:14;;;;;;;;;15.33;15.33;;;;;23.02;36.98;100915.44;5097888;27;46505;-61
2022/08/12 05:20:42;;;;;;;;;14.00;14.00;;;;;23.03;36.92;100917.16;5096477;27;45461;-61
2022/08/12 05:23:13;;;;;;;;;18.00;16.33;;;;;23.00;37.00;100915.63;5098174;27;45248;-61
2022/08/12 05:25:42;;;;;;;;;16.00;16.00;;;;;22.88;37.26;100895.19;5087319;27;45351;-60
2022/08/12 05:28:08;;;;;;;;;13.67;12.00;;;;;22.89;37.29;100916.72;5077230;27;45225;-61
2022/08/12 05:30:34;;;;;;;;;14.33;13.00;;;;;22.92;37.48;100915.56;5077599;27;45836;-62
2022/08/12 05:33:05;;;;;;;;;14.67;14.67;;;;;22.93;37.39;100922.69;5077756;27;45330;-63
2022/08/12 05:35:35;;;;;;;;;14.67;13.00;;;;;22.92;36.97;100923.72;5078059;28;45429;-61
2022/08/12 05:41:17;;;;;;;;;15.00;13.67;;;;;22.84;37.06;100919.06;4975043;28;45471;-62
2022/08/12 05:43:45;;;;;;;;;15.00;13.00;;;;;22.89;37.62;100924.00;4974966;28;45305;-62
2022/08/12 05:46:10;;;;;;;;;15.33;12.67;;;;;22.89;37.93;100930.28;5030918;28;45411;-62
2022/08/12 05:48:35;;;;;;;;;16.33;16.33;;;;;22.84;37.62;100913.63;5076633;28;46155;-62
2022/08/12 05:51:01;;;;;;;;;13.67;13.67;;;;;22.92;37.33;100930.00;5077072;28;45320;-61
2022/08/12 05:53:27;;;;;;;;;15.67;15.00;;;;;22.87;37.51;100926.88;5077134;28;45308;-61
2022/08/12 05:55:53;;;;;;;;;15.33;13.00;;;;;22.88;37.54;100923.16;5058565;28;45389;-62
2022/08/12 05:58:20;;;;;;;;;12.00;12.00;;;;;22.92;37.70;100932.69;5075769;27;46395;-62
2022/08/12 06:00:45;;;;;;;;;15.00;15.00;;;;;22.96;37.53;100927.81;5076568;28;45279;-61
2022/08/12 06:03:11;;;;;;;;;16.33;15.67;;;;;22.94;37.52;100922.53;5076796;28;45331;-61
2022/08/12 06:05:37;;;;;;;;;15.33;13.67;;;;;22.91;37.02;100925.53;5077284;27;45474;-62
2022/08/12 06:08:06;;;;;;;;;13.67;13.67;;;;;22.92;37.43;100927.28;5077068;28;45464;-61
2022/08/12 06:10:33;;;;;;;;;15.67;15.67;;;;;23.00;37.26;100925.63;5077503;28;45383;-61
2022/08/12 06:13:06;;;;;;;;;14.00;11.00;;;;;23.03;37.18;100933.44;5060118;28;45259;-62
2022/08/12 06:15:36;;;;;;;;;13.33;13.33;;;;;23.02;37.93;100929.00;5077414;28;45216;-61
2022/08/12 06:18:11;;;;;;;;;12.67;12.67;;;;;23.04;37.18;100935.97;5076597;28;47201;-61
2022/08/12 06:20:37;;;;;;;;;16.00;14.00;;;;;23.07;37.12;100929.41;5077161;28;45389;-61
2022/08/12 06:23:03;;;;;;;;;17.33;14.33;;;;;23.07;37.42;100924.00;5076721;27;45348;-61
2022/08/12 06:25:30;;;;;;;;;13.67;13.00;;;;;23.04;37.27;100922.41;5085486;27;45418;-62
2022/08/12 06:27:58;;;;;;;;;11.00;10.67;;;;;23.08;37.22;100925.69;5096442;27;47132;-61
2022/08/12 06:30:24;;;;;;;;;18.33;14.00;;;;;23.09;37.42;100935.53;5096437;27;45290;-61
2022/08/12 06:32:51;;;;;;;;;15.00;14.67;;;;;23.08;37.55;100921.09;5096758;27;45271;-61
2022/08/12 06:35:18;;;;;;;;;16.33;13.33;;;;;23.13;37.43;100928.75;5096716;27;45527;-62
2022/08/12 06:37:50;;;;;;;;;19.67;16.33;;;;;23.12;37.53;100927.06;5095418;27;45582;-61
2022/08/12 06:42:46;;;;;;;;;15.33;13.67;;;;;23.12;37.41;100927.06;5096308;27;45247;-62
2022/08/12 06:43:05;;;;;;;;;16.33;16.33;;;;;23.13;37.63;100932.31;5096534;27;45459;-62
2022/08/12 06:45:31;;;;;;;;;17.00;16.33;;;;;23.16;37.55;100928.44;5096784;27;45432;-61
2022/08/12 06:48:05;;;;;;;;;14.33;14.33;;;;;23.19;37.70;100925.44;5096513;27;47127;-61
2022/08/12 06:50:30;;;;;;;;;18.33;14.67;;;;;23.23;37.84;100934.94;5096707;27;45447;-62
2022/08/12 06:52:56;;;;;;;;;16.67;14.67;;;;;23.27;37.73;100939.03;5081723;27;45414;-62
2022/08/12 06:55:24;;;;;;;;;14.00;13.00;;;;;23.30;37.07;100936.00;5100300;27;45548;-61
2022/08/12 06:57:54;;;;;;;;;14.00;13.00;;;;;23.31;36.98;100924.16;5099794;27;46032;-61
2022/08/12 07:00:21;;;;;;;;;17.00;14.67;;;;;23.40;36.94;100925.03;5099693;27;45406;-61
2022/08/12 07:02:47;;;;;;;;;14.00;14.00;;;;;23.44;37.14;100932.72;5099843;27;45282;-61
2022/08/12 07:05:12;;;;;;;;;14.33;14.33;;;;;23.51;36.71;100927.47;5099008;27;45375;-61
2022/08/12 07:07:38;;;;;;;;;15.33;14.33;;;;;23.51;36.84;100920.19;5099973;27;45536;-61
2022/08/12 07:10:03;;;;;;;;;19.00;16.33;;;;;23.61;36.88;100928.25;5099712;27;45283;-61
2022/08/12 07:12:30;;;;;;;;;15.67;12.33;;;;;23.59;36.58;100910.41;5098582;27;45295;-61
2022/08/12 07:14:57;;;;;;;;;13.00;13.00;;;;;23.69;36.51;100913.84;5100290;27;45495;-63
2022/08/12 07:17:23;;;;;;;;;15.67;14.33;;;;;23.78;36.26;100930.00;5099647;27;45330;-62
2022/08/12 07:19:50;;;;;;;;;14.33;14.00;;;;;23.85;35.71;100922.06;5099506;27;45460;-62
2022/08/12 07:22:16;;;;;;;;;16.67;13.67;;;;;23.91;35.33;100913.25;5100028;27;45352;-61
2022/08/12 07:24:42;;;;;;;;;15.00;13.33;;;;;23.98;35.50;100919.75;5097510;27;45183;-62
2022/08/12 07:27:07;;;;;;;;;19.33;16.67;;;;;24.03;35.78;100922.81;5079198;28;46054;-63
2022/08/12 07:29:33;;;;;;;;;14.67;13.00;;;;;24.10;35.02;100912.97;5079021;28;45281;-62
2022/08/12 07:31:58;;;;;;;;;13.33;10.33;;;;;24.10;35.16;100904.84;5077808;28;45458;-66
2022/08/12 07:34:25;;;;;;;;;19.67;15.33;;;;;24.25;34.98;100915.06;5079327;28;45212;-61
2022/08/12 07:36:51;;;;;;;;;15.00;14.00;;;;;24.35;34.60;100915.75;5078924;27;46824;-62
2022/08/12 07:39:16;;;;;;;;;12.67;11.67;;;;;24.44;34.15;100911.19;5060668;28;45789;-63
2022/08/12 07:41:42;;;;;;;;;12.33;11.33;;;;;24.46;33.35;100901.84;5079111;27;45413;-64
2022/08/12 07:44:08;;;;;;;;;15.67;12.00;;;;;24.60;33.31;100912.06;5079596;28;45283;-61
2022/08/12 07:46:40;;;;;;;;;11.00;11.00;;;;;24.62;33.00;100899.16;5060602;28;45427;-63
2022/08/12 07:49:10;;;;;;;;;17.00;13.00;;;;;24.74;33.36;100905.13;5079263;27;45312;-62
2022/08/12 07:51:36;;;;;;;;;10.00;10.00;;;;;24.82;32.91;100909.69;5079644;28;45248;-61
2022/08/12 07:54:08;;;;;;;;;11.67;11.67;;;;;24.88;33.08;100900.84;5079949;27;45380;-63
2022/08/12 07:56:35;;;;;;;;;15.33;13.00;;;;;24.96;32.76;100909.00;5079535;28;46283;-62
2022/08/12 07:59:01;;;;;;;;;15.33;13.00;;;;;25.05;33.18;100910.72;5079169;27;45329;-63
2022/08/12 08:01:27;;;;;;;;;13.33;13.33;;;;;25.10;32.68;100892.00;5060525;28;45773;-62
2022/08/12 08:06:41;;;;;;;;;10.00;10.00;;;;;25.25;32.44;100909.31;5079676;28;45798;-62
2022/08/12 08:09:10;;;;;;;;;12.50;11.50;;;;;25.35;32.42;100908.28;5078867;28;45371;-61
2022/08/12 08:14:19;;;;;;;;;15.33;13.33;;;;;25.53;32.53;100908.91;5079267;28;45335;-62
2022/08/12 08:16:47;;;;;;;;;11.50;11.50;;;;;25.63;31.19;100911.41;5079851;28;46484;-62
2022/08/12 08:19:22;;;;;;;;;11.00;11.00;;;;;25.71;31.55;100909.56;5077792;28;45389;-61
2022/08/12 08:21:53;;;;;;;;;12.00;10.67;;;;;25.78;32.41;100909.69;5061012;28;45288;-60
2022/08/12 08:24:19;;;;;;;;;14.67;13.67;;;;;25.87;31.87;100920.38;5078444;28;45339;-61
2022/08/12 08:26:47;;;;;;;;;12.67;11.00;;;;;25.96;32.00;100917.63;5079342;27;45448;-62
2022/08/12 08:29:14;;;;;;;;;11.50;11.00;;;;;26.03;31.88;100911.25;5098912;27;45390;-62
2022/08/12 08:31:42;;;;;;;;;10.75;10.25;;;;;26.12;31.28;100918.38;5098330;27;45363;-61
2022/08/12 08:34:08;;;;;;;;;12.75;11.25;;;;;26.31;31.33;100927.13;5098410;27;45551;-62
2022/08/12 08:36:34;;;;;;;;;12.25;12.25;;;;;26.69;31.12;100908.97;5098463;27;45422;-60
2022/08/12 08:38:59;;;;;;;;;14.75;11.75;;;;;27.25;29.83;100918.56;5098118;27;45419;-61
2022/08/12 08:44:12;;;;;;;;;13.25;12.50;;;;;28.56;28.98;100901.31;5099141;27;45275;-62
2022/08/12 08:46:39;;;;;;;;;13.50;11.50;;;;;29.14;27.52;100907.50;5098005;27;46568;-61
2022/08/12 08:49:05;;;;;;;;;11.80;10.00;;;;;29.72;27.47;100913.59;5079981;27;45244;-64
2022/08/12 08:51:31;;;;;;;;;10.40;10.00;;;;;30.20;26.10;100906.22;5098417;27;45457;-61
2022/08/12 08:53:56;;;;;;;;;10.50;9.00;;;;;30.66;25.50;100907.41;5098493;27;45453;-62
2022/08/12 08:56:22;;;;;;;;;12.25;10.00;;;;;31.11;25.09;100905.69;5098118;27;45418;-61
2022/08/12 08:58:48;;;;;;;;;11.75;11.75;;;;;31.54;24.05;100916.22;5098048;27;45481;-61
2022/08/12 09:01:19;;;;;;;;;9.20;9.20;;;;;31.89;24.60;100900.25;5098340;27;45349;-62
2022/08/12 09:03:45;;;;;;;;;7.40;7.40;;;;;32.22;22.73;100900.94;5098479;27;45527;-61
2022/08/12 09:06:13;;;;;;;;;8.20;8.20;;;;;32.65;22.23;100897.50;5098094;27;45410;-64
2022/08/12 09:08:42;;;;;;;;;8.00;7.00;;;;;32.97;21.47;100894.75;5097673;27;45410;-63
2022/08/12 09:13:51;;;;;;;;;8.00;8.00;;;;;33.46;21.55;100898.50;5097656;27;45303;-61
2022/08/12 09:16:18;;;;;;;;;6.50;4.75;;;;;33.66;21.15;100899.13;5097695;27;45898;-62
2022/08/12 09:18:44;;;;;;;;;9.80;8.60;;;;;33.93;21.54;100903.28;5097895;27;45324;-63
2022/08/12 09:21:10;;;;;;;;;8.25;7.50;;;;;34.24;20.58;100896.66;5097902;27;45417;-63
2022/08/12 09:23:35;;;;;;;;;7.75;7.75;;;;;34.55;21.09;100895.63;5097978;27;45242;-62
2022/08/12 09:26:01;;;;;;;;;9.50;8.50;;;;;34.81;19.43;100890.75;5083762;27;47215;-62
2022/08/12 09:28:31;;;;;;;;;9.00;9.00;;;;;35.04;20.07;100896.31;5077227;28;45734;-62
2022/08/12 09:30:58;;;;;;;;;9.80;8.00;;;;;35.28;19.68;100885.22;5077403;28;45330;-61
2022/08/12 09:33:27;;;;;;;;;6.80;6.80;;;;;35.58;19.69;100890.66;5077200;27;45278;-63
2022/08/12 09:35:54;;;;;;;;;7.60;7.60;;;;;35.75;19.97;100881.34;5059246;28;46940;-63
2022/08/12 09:38:19;;;;;;;;;8.80;8.80;;;;;36.03;19.13;100888.00;5077292;28;45495;-62
2022/08/12 09:40:46;;;;;;;;;9.50;9.50;;;;;36.21;19.28;100887.81;5077631;28;45367;-62
2022/08/12 09:45:59;;;;;;;;;8.40;8.20;;;;;36.53;18.65;100881.75;5076891;28;45805;-63
2022/08/12 09:48:25;;;;;;;;;9.00;9.00;;;;;36.84;17.98;100877.59;5076548;28;45295;-64
2022/08/12 09:50:51;;;;;;;;;8.60;8.60;;;;;37.03;18.69;100880.97;5076561;28;45300;-65
2022/08/12 09:53:23;;;;;;;;;5.60;5.60;;;;;37.06;18.15;100872.13;5077387;28;45586;-63
2022/08/12 09:55:53;;;;;;;;;8.40;8.20;;;;;37.11;17.82;100877.72;5076751;28;46490;-64
2022/08/12 09:58:29;;;;;;;;;7.00;7.00;;;;;37.09;18.25;100869.66;5076574;28;45456;-64
2022/08/12 10:01:03;;;;;;;;;6.80;6.80;;;;;37.17;18.22;100865.63;5077558;28;45396;-63
2022/08/12 10:03:30;;;;;;;;;6.20;6.20;;;;;37.28;17.22;100867.50;5058797;28;45833;-63
2022/08/12 10:05:58;;;;;;;;;8.20;8.20;;;;;37.40;18.25;100867.38;5076718;28;45934;-63
2022/08/12 10:08:31;;;;;;;;;9.00;7.40;;;;;37.48;17.88;100872.47;5076674;28;45354;-62
2022/08/12 10:13:43;;;;;;;;;7.80;7.80;;;;;36.99;16.72;100858.47;5076807;28;45258;-64
2022/08/12 10:16:17;;;;;;;;;7.00;7.00;;;;;36.71;17.91;100859.34;5076468;28;45335;-62
2022/08/12 10:18:45;;;;;;;;;7.40;6.60;;;;;36.39;17.69;100852.72;5076213;28;45352;-63
2022/08/12 10:21:16;;;;;;;;;6.80;6.80;;;;;36.13;17.59;100843.91;5075975;28;45313;-64
2022/08/12 10:23:44;;;;;;;;;8.40;6.00;;;;;35.80;17.61;100846.53;5076373;28;45597;-64
2022/08/12 10:31:40;;;;;;;;;9.00;7.00;;;;;34.69;18.46;100831.88;5096846;27;45223;-63
2022/08/12 10:34:09;;;;;;;;;7.50;7.50;;;;;34.36;19.19;100833.22;5097262;27;45314;-63
2022/08/12 10:36:39;;;;;;;;;8.60;7.00;;;;;34.02;19.31;100834.81;5078297;27;45526;-64
2022/08/12 10:39:06;;;;;;;;;7.40;7.40;;;;;33.77;19.21;100834.91;5096580;27;45267;-64
2022/08/12 10:44:16;;;;;;;;;6.80;5.80;;;;;33.26;19.89;100827.88;5081515;27;45311;-64
2022/08/12 10:46:43;;;;;;;;;7.00;7.00;;;;;33.14;20.17;100826.94;5096399;27;46280;-64
2022/08/12 10:49:10;;;;;;;;;10.40;10.40;;;;;33.06;20.22;100847.34;5096034;27;45497;-66
2022/08/12 10:51:35;;;;;;;;;6.80;6.80;;;;;32.93;20.13;100832.88;5096380;27;45280;-63
2022/08/12 10:54:01;;;;;;;;;9.00;9.00;;;;;32.82;20.48;100827.06;5078259;27;45336;-63
2022/08/12 10:56:26;;;;;;;;;1.25;1.25;;;;;32.72;20.98;100823.94;5096013;27;46160;-62
2022/08/12 10:58:54;;;;;;;;;6.75;6.75;;;;;32.62;20.88;100823.59;5096394;27;45345;-63
2022/08/12 11:01:20;;;;;;;;;7.00;7.00;;;;;32.58;20.96;100814.13;5097010;27;45334;-62
2022/08/12 11:03:45;;;;;;;;;9.00;9.00;;;;;32.54;21.36;100801.84;5096746;27;45276;-63
2022/08/12 11:06:11;;;;;;;;;7.25;6.50;;;;;32.42;20.93;100803.66;5095770;27;45329;-63
2022/08/12 11:08:38;;;;;;;;;9.25;8.00;;;;;32.41;20.54;100807.47;5096347;27;45357;-65
2022/08/12 11:11:08;;;;;;;;;8.80;7.80;;;;;32.44;20.96;100802.38;5096661;27;45478;-65
2022/08/12 11:13:34;;;;;;;;;7.80;7.80;;;;;32.42;21.22;100792.63;5078585;27;45736;-64
2022/08/12 11:16:00;;;;;;;;;5.40;5.00;;;;;32.42;19.84;100792.63;5096602;27;46101;-62
2022/08/12 11:18:26;;;;;;;;;7.00;7.00;;;;;32.40;20.45;100789.25;5097079;27;45298;-61
2022/08/12 11:20:53;;;;;;;;;8.80;8.40;;;;;32.43;20.42;100795.19;5097600;27;45328;-64
2022/08/12 11:23:19;;;;;;;;;7.80;7.80;;;;;32.43;19.94;100780.59;5097255;27;45613;-64
2022/08/12 11:25:46;;;;;;;;;6.60;6.60;;;;;32.43;20.39;100778.66;5078503;27;45404;-63
2022/08/12 11:28:12;;;;;;;;;8.20;7.60;;;;;32.50;20.06;100784.09;5096447;27;45407;-64
2022/08/12 11:30:38;;;;;;;;;8.00;8.00;;;;;32.56;19.77;100783.22;5096648;27;45304;-64
2022/08/12 11:33:03;;;;;;;;;8.00;6.75;;;;;32.55;20.30;100770.50;5096544;27;45247;-63
2022/08/12 11:35:29;;;;;;;;;7.75;6.00;;;;;32.67;20.35;100771.44;5095860;27;46012;-62
2022/08/12 11:37:54;;;;;;;;;7.00;5.50;;;;;32.74;19.90;100774.97;5098264;27;45278;-64
2022/08/12 11:40:20;;;;;;;;;8.50;8.50;;;;;32.79;20.68;100764.13;5099966;27;45314;-63
2022/08/12 11:42:45;;;;;;;;;6.25;6.00;;;;;32.83;19.49;100757.13;5099761;27;45338;-63
2022/08/12 11:45:10;;;;;;;;;7.75;6.25;;;;;32.78;19.50;100762.44;5099387;27;45309;-63
2022/08/12 11:47:36;;;;;;;;;4.50;4.50;;;;;32.88;19.58;100761.09;5099625;27;45360;-62
2022/08/12 11:50:02;;;;;;;;;5.00;5.00;;;;;32.94;19.70;100755.50;5099490;27;45362;-63
2022/08/12 11:52:28;;;;;;;;;5.40;5.40;;;;;32.99;19.67;100758.44;5099494;27;45503;-62
2022/08/12 11:54:53;;;;;;;;;7.00;7.00;;;;;33.06;19.46;100761.09;5099810;27;47162;-63
2022/08/12 11:57:21;;;;;;;;;9.40;8.20;;;;;33.11;19.60;100750.25;5099858;27;45497;-63
2022/08/12 11:59:46;;;;;;;;;4.75;4.75;;;;;33.16;19.68;100744.88;5099998;27;45362;-64
2022/08/12 12:02:12;;;;;;;;;8.00;7.25;;;;;33.28;18.97;100737.50;5099599;27;45314;-63
2022/08/12 12:04:37;;;;;;;;;6.50;5.75;;;;;33.33;18.64;100756.94;5097770;27;45957;-62
2022/08/12 12:07:03;;;;;;;;;5.00;5.00;;;;;33.29;19.66;100743.88;5099284;27;45262;-64
2022/08/12 12:09:28;;;;;;;;;7.25;5.25;;;;;33.45;19.55;100748.78;5099621;27;45197;-63
2022/08/12 12:11:54;;;;;;;;;7.00;6.00;;;;;33.47;19.65;100740.25;5099438;27;45680;-63
2022/08/12 12:14:19;;;;;;;;;5.75;5.75;;;;;33.49;19.02;100732.63;5098943;27;45424;-63
2022/08/12 12:16:44;;;;;;;;;8.75;7.00;;;;;33.57;19.23;100729.53;5098986;27;45232;-63
2022/08/12 12:19:10;;;;;;;;;5.25;5.25;;;;;33.62;18.96;100737.94;5099190;27;45189;-61
2022/08/12 12:21:36;;;;;;;;;7.00;7.00;;;;;33.74;19.79;100725.03;5099187;27;45363;-63
2022/08/12 12:24:01;;;;;;;;;4.00;4.00;;;;;33.85;18.51;100732.50;5098908;27;45388;-61
2022/08/12 12:26:27;;;;;;;;;7.25;7.25;;;;;33.91;18.78;100726.06;5098075;27;45340;-63
2022/08/12 12:28:52;;;;;;;;;7.00;7.00;;;;;34.00;18.79;100724.66;5099415;27;45325;-63
2022/08/12 12:31:17;;;;;;;;;6.75;5.00;;;;;34.11;18.18;100722.13;5098791;27;45481;-61
2022/08/12 12:33:43;;;;;;;;;5.00;5.00;;;;;34.16;18.31;100711.25;5079820;27;46432;-61
2022/08/12 12:36:08;;;;;;;;;8.00;7.00;;;;;34.20;18.81;100707.75;5098079;27;45476;-62
2022/08/12 12:38:34;;;;;;;;;8.00;6.00;;;;;34.30;18.42;100712.69;5098393;27;45415;-63
2022/08/12 12:40:59;;;;;;;;;7.00;7.00;;;;;34.40;18.23;100724.03;5098548;27;45457;-60
2022/08/12 12:43:25;;;;;;;;;6.00;6.00;;;;;34.43;18.66;100717.19;5079934;27;47989;-61
2022/08/12 12:45:51;;;;;;;;;5.25;5.25;;;;;34.51;18.38;100708.53;5098196;27;45429;-63
2022/08/12 12:48:17;;;;;;;;;6.75;5.50;;;;;34.62;18.04;100709.59;5078826;27;45431;-61
2022/08/12 12:50:44;;;;;;;;;7.20;6.40;;;;;34.70;17.91;100700.94;5098392;27;45402;-62
2022/08/12 12:53:11;;;;;;;;;6.40;6.40;;;;;34.69;17.56;100696.50;5097918;27;45390;-61
2022/08/12 12:55:38;;;;;;;;;7.00;6.00;;;;;34.70;17.32;100704.53;5098110;27;45459;-63
2022/08/12 12:58:10;;;;;;;;;8.40;7.20;;;;;34.77;16.91;100705.28;5098405;27;45358;-60
2022/08/12 13:00:39;;;;;;;;;6.40;6.40;;;;;34.84;17.83;100702.38;5098155;27;45432;-61
2022/08/12 13:03:04;;;;;;;;;5.00;5.00;;;;;34.84;17.20;100707.88;5098207;27;45365;-63
2022/08/12 13:05:35;;;;;;;;;8.00;8.00;;;;;34.86;17.02;100700.19;5096762;27;45369;-64
2022/08/12 13:08:02;;;;;;;;;8.40;7.20;;;;;34.98;18.47;100702.97;5097868;27;45421;-63
2022/08/12 13:10:30;;;;;;;;;6.80;5.60;;;;;35.12;17.60;100698.84;5080414;27;45427;-63